Time;durP1;ratioP1;P1;durP2;ratioP2;P2;SDS_P1;SDS_P2;PMS_P1;PMS_P2;Temp;Humidity;BMP_temperature;BMP_pressure;BME280_temperature;BME280_humidity;BME280_pressure;Samples;Min_cycle;Max_cycle;Signal;HPM_P1;HPM_P2
2022/03/06 00:00:17;;;;;;;36.33;19.23;;;;;;;0.46;73.95;101788.53;5114943;28;20191;-68
2022/03/06 00:02:44;;;;;;;35.37;18.83;;;;;;;0.43;73.95;101786.78;5115474;28;20491;-68
2022/03/06 00:05:10;;;;;;;26.27;17.87;;;;;;;0.48;73.49;101790.28;5115471;28;20482;-68
2022/03/06 00:07:37;;;;;;;31.27;18.77;;;;;;;0.43;73.62;101789.38;5115405;28;20550;-68
2022/03/06 00:10:04;;;;;;;31.03;19.40;;;;;;;0.34;73.99;101796.03;5115329;28;20923;-68
2022/03/06 00:12:37;;;;;;;31.23;18.13;;;;;;;0.37;73.91;101798.69;5115145;28;20552;-69
2022/03/06 00:15:04;;;;;;;35.93;19.27;;;;;;;0.35;74.25;101790.06;5115301;28;20456;-69
2022/03/06 00:17:31;;;;;;;28.90;18.60;;;;;;;0.26;74.22;101794.19;5115426;28;20441;-70
2022/03/06 00:19:58;;;;;;;38.27;19.47;;;;;;;0.21;74.49;101785.50;5115039;28;20433;-70
2022/03/06 00:22:24;;;;;;;35.77;18.37;;;;;;;0.32;74.35;101787.44;5115408;28;20448;-70
2022/03/06 00:24:51;;;;;;;31.63;19.17;;;;;;;0.32;74.32;101784.84;5115066;28;20441;-70
2022/03/06 00:27:17;;;;;;;36.87;19.23;;;;;;;0.38;74.12;101787.56;5115011;28;20429;-70
2022/03/06 00:29:44;;;;;;;39.30;18.47;;;;;;;0.24;74.50;101782.16;5115183;28;20432;-70
2022/03/06 00:32:10;;;;;;;34.83;17.70;;;;;;;0.22;74.10;101789.84;5114962;28;20469;-70
2022/03/06 00:34:37;;;;;;;37.93;19.30;;;;;;;0.23;74.52;101783.00;5114805;28;20436;-70
2022/03/06 00:37:05;;;;;;;33.97;17.50;;;;;;;0.10;74.56;101784.47;5115089;28;20433;-70
2022/03/06 00:39:31;;;;;;;33.47;18.33;;;;;;;0.02;74.78;101788.59;5114755;28;20890;-70
2022/03/06 00:41:58;;;;;;;32.57;18.93;;;;;;;-0.02;75.10;101795.38;5096587;28;20437;-70
2022/03/06 00:44:30;;;;;;;31.17;18.17;;;;;;;-0.03;75.16;101790.22;5115252;28;20876;-70
2022/03/06 00:46:56;;;;;;;27.90;17.13;;;;;;;-0.08;74.97;101781.53;5114592;28;20434;-70
2022/03/06 00:49:23;;;;;;;31.27;18.33;;;;;;;-0.22;75.48;101788.09;5114534;28;20919;-70
2022/03/06 00:51:49;;;;;;;22.83;16.73;;;;;;;-0.19;75.28;101793.34;5114928;28;20456;-70
2022/03/06 00:54:16;;;;;;;29.10;17.93;;;;;;;-0.22;75.79;101794.13;5114494;28;20764;-70
2022/03/06 00:56:43;;;;;;;30.67;18.13;;;;;;;-0.25;76.50;101798.34;5114723;28;20448;-70
2022/03/06 00:59:09;;;;;;;30.50;18.60;;;;;;;-0.33;76.72;101803.34;5114391;28;20436;-70
2022/03/06 01:01:36;;;;;;;32.50;18.50;;;;;;;-0.46;77.03;101799.66;5114401;28;21009;-70
2022/03/06 01:04:03;;;;;;;29.30;17.37;;;;;;;-0.41;76.78;101800.63;5114530;28;20417;-70
2022/03/06 01:06:30;;;;;;;31.33;19.07;;;;;;;-0.51;77.77;101808.97;5114221;28;20425;-70
2022/03/06 01:08:56;;;;;;;30.40;18.03;;;;;;;-0.47;77.66;101803.06;5114198;28;20425;-70
2022/03/06 01:11:23;;;;;;;29.27;18.33;;;;;;;-0.51;77.68;101802.94;5113420;28;20959;-70
2022/03/06 01:13:50;;;;;;;29.50;18.40;;;;;;;-0.57;77.76;101814.00;5113976;28;20472;-70
2022/03/06 01:16:16;;;;;;;31.00;19.07;;;;;;;-0.63;77.89;101807.00;5114114;28;20791;-70
2022/03/06 01:18:43;;;;;;;35.00;18.37;;;;;;;-0.66;78.24;101813.78;5114062;28;20486;-70
2022/03/06 01:21:10;;;;;;;31.70;18.83;;;;;;;-0.66;78.31;101817.22;5113944;28;20468;-69
2022/03/06 01:23:36;;;;;;;30.70;18.30;;;;;;;-0.68;78.52;101807.72;5114016;28;20428;-69
2022/03/06 01:26:04;;;;;;;34.77;18.47;;;;;;;-0.75;78.82;101826.44;5113944;28;20421;-69
2022/03/06 01:28:31;;;;;;;32.93;18.47;;;;;;;-0.76;78.77;101825.56;5114423;28;20448;-69
2022/03/06 01:30:57;;;;;;;26.63;17.30;;;;;;;-0.74;78.66;101828.16;5114105;28;20947;-69
2022/03/06 01:33:24;;;;;;;31.53;18.40;;;;;;;-0.77;78.83;101825.53;5114038;28;20465;-69
2022/03/06 01:35:51;;;;;;;31.77;18.50;;;;;;;-0.79;78.84;101827.19;5114053;28;20537;-69
2022/03/06 01:38:17;;;;;;;33.43;17.53;;;;;;;-0.87;78.76;101830.44;5114346;28;20422;-69
2022/03/06 01:40:44;;;;;;;31.53;18.63;;;;;;;-0.89;78.87;101831.25;5113694;28;20447;-69
2022/03/06 01:43:11;;;;;;;32.07;19.80;;;;;;;-1.02;79.50;101834.34;5114009;28;20914;-69
2022/03/06 01:45:37;;;;;;;35.17;19.10;;;;;;;-1.03;79.83;101828.34;5113709;28;20436;-69
2022/03/06 01:48:08;;;;;;;30.70;18.77;;;;;;;-1.09;80.37;101833.34;5114504;28;20772;-70
2022/03/06 01:50:36;;;;;;;36.53;19.60;;;;;;;-1.11;80.62;101833.31;5113885;28;20420;-70
2022/03/06 01:53:06;;;;;;;37.50;18.93;;;;;;;-1.06;80.68;101838.56;5113590;28;20469;-70
2022/03/06 01:55:33;;;;;;;40.73;19.27;;;;;;;-1.05;80.68;101842.00;5113596;28;20459;-71
2022/03/06 01:58:04;;;;;;;29.80;17.20;;;;;;;-1.11;81.10;101843.59;5113659;28;20789;-70
2022/03/06 02:00:35;;;;;;;30.17;17.03;;;;;;;-1.08;80.90;101842.78;5114109;28;20424;-69
2022/03/06 02:03:03;;;;;;;35.90;18.57;;;;;;;-1.09;81.02;101841.03;5113583;28;20842;-69
2022/03/06 02:05:30;;;;;;;35.13;18.77;;;;;;;-1.15;80.56;101846.91;5113495;28;20911;-69
2022/03/06 02:07:57;;;;;;;28.57;17.63;;;;;;;-1.13;80.80;101847.81;5113558;28;21018;-69
2022/03/06 02:10:23;;;;;;;27.20;17.47;;;;;;;-1.16;80.68;101844.28;5113424;28;20425;-69
2022/03/06 02:12:50;;;;;;;32.60;17.97;;;;;;;-1.24;80.45;101844.09;5113358;28;20465;-69
2022/03/06 02:15:19;;;;;;;31.53;16.83;;;;;;;-1.19;80.53;101844.22;5113458;28;20434;-69
2022/03/06 02:17:46;;;;;;;27.97;17.23;;;;;;;-1.22;80.21;101849.28;5113711;28;20920;-69
2022/03/06 02:20:15;;;;;;;30.63;16.13;;;;;;;-1.25;80.01;101847.50;5113218;28;20450;-69
2022/03/06 02:22:47;;;;;;;32.10;16.87;;;;;;;-1.40;80.56;101842.84;5113616;28;20948;-70
2022/03/06 02:25:24;;;;;;;27.40;17.13;;;;;;;-1.42;80.71;101841.97;5118043;28;20410;-69
2022/03/06 02:27:52;;;;;;;38.00;16.00;;;;;;;-1.35;80.59;101837.84;5117360;28;20409;-70
2022/03/06 02:30:22;;;;;;;31.70;18.00;;;;;;;-1.48;81.56;101831.53;5117279;28;20489;-69
2022/03/06 02:32:50;;;;;;;35.20;16.07;;;;;;;-1.48;81.54;101835.78;5117190;28;20460;-70
2022/03/06 02:35:18;;;;;;;24.63;16.03;;;;;;;-1.49;81.89;101839.19;5117188;28;20440;-70
2022/03/06 02:37:46;;;;;;;27.10;15.60;;;;;;;-1.51;81.81;101831.44;5117137;28;20428;-70
2022/03/06 02:40:14;;;;;;;28.17;17.67;;;;;;;-1.45;81.88;101833.28;5117599;28;20525;-70
2022/03/06 02:42:43;;;;;;;25.97;16.13;;;;;;;-1.49;82.05;101829.78;5117258;28;20449;-70
2022/03/06 02:45:20;;;;;;;30.03;16.00;;;;;;;-1.48;82.03;101833.22;5116977;28;20427;-69
2022/03/06 02:47:47;;;;;;;31.93;15.83;;;;;;;-1.54;82.00;101828.78;5100101;28;20409;-69
2022/03/06 02:50:17;;;;;;;31.53;17.57;;;;;;;-1.53;81.85;101834.78;5117051;28;20429;-70
2022/03/06 02:52:44;;;;;;;34.37;16.63;;;;;;;-1.52;81.90;101828.81;5117116;28;20807;-70
2022/03/06 02:55:12;;;;;;;26.20;15.80;;;;;;;-1.57;82.29;101828.72;5116820;28;20512;-70
2022/03/06 02:57:40;;;;;;;34.97;17.00;;;;;;;-1.59;82.33;101830.38;5116895;28;20448;-70
2022/03/06 03:00:10;;;;;;;25.27;16.00;;;;;;;-1.62;82.31;101827.72;5117003;28;20433;-70
2022/03/06 03:02:38;;;;;;;27.47;16.73;;;;;;;-1.66;82.97;101831.91;5116659;28;20927;-70
2022/03/06 03:05:06;;;;;;;30.57;16.73;;;;;;;-1.64;82.62;101829.41;5116611;28;20422;-70
2022/03/06 03:07:32;;;;;;;31.97;16.77;;;;;;;-1.72;82.77;101823.16;5117134;28;20430;-70
2022/03/06 03:09:59;;;;;;;30.90;16.27;;;;;;;-1.60;82.60;101823.50;5116852;28;20764;-70
2022/03/06 03:12:27;;;;;;;24.07;15.80;;;;;;;-1.53;82.23;101830.53;5116595;28;20452;-70
2022/03/06 03:14:53;;;;;;;28.47;16.37;;;;;;;-1.49;82.24;101826.34;5116441;28;20434;-70
2022/03/06 03:17:20;;;;;;;25.97;16.10;;;;;;;-1.58;82.19;101829.53;5116380;28;20422;-70
2022/03/06 03:19:46;;;;;;;25.40;15.90;;;;;;;-1.55;82.22;101826.19;5116813;28;20422;-70
2022/03/06 03:22:13;;;;;;;29.77;17.23;;;;;;;-1.58;82.30;101829.53;5116324;28;20441;-70
2022/03/06 03:24:39;;;;;;;32.53;16.43;;;;;;;-1.59;82.65;101827.78;5116465;28;20425;-70
2022/03/06 03:27:06;;;;;;;36.23;18.03;;;;;;;-1.58;82.51;101826.97;5116399;28;20783;-70
2022/03/06 03:29:32;;;;;;;39.37;16.43;;;;;;;-1.47;82.24;101832.38;5116686;28;20429;-70
2022/03/06 03:31:59;;;;;;;34.53;16.43;;;;;;;-1.58;82.05;101829.53;5116279;28;20994;-70
2022/03/06 03:34:25;;;;;;;33.47;17.17;;;;;;;-1.56;82.10;101837.28;5115181;28;20879;-70
2022/03/06 03:36:52;;;;;;;27.17;16.07;;;;;;;-1.56;81.72;101838.16;5115969;28;20429;-70
2022/03/06 03:39:18;;;;;;;27.73;17.40;;;;;;;-1.48;81.76;101840.94;5115985;28;20430;-70
2022/03/06 03:41:45;;;;;;;33.80;16.97;;;;;;;-1.41;81.28;101843.69;5116121;28;20445;-69
2022/03/06 03:44:11;;;;;;;24.03;16.17;;;;;;;-1.49;81.36;101834.94;5115859;28;20418;-69
2022/03/06 03:46:38;;;;;;;32.80;17.33;;;;;;;-1.50;81.23;101840.91;5115834;28;20829;-69
2022/03/06 03:49:04;;;;;;;25.47;17.07;;;;;;;-1.55;81.58;101839.03;5115810;28;20926;-69
2022/03/06 03:51:31;;;;;;;28.93;16.20;;;;;;;-1.56;81.56;101850.13;5115696;28;20962;-69
2022/03/06 03:53:57;;;;;;;28.07;18.07;;;;;;;-1.60;81.47;101849.16;5115625;28;20465;-69
2022/03/06 03:56:24;;;;;;;31.37;16.73;;;;;;;-1.53;81.75;101851.06;5115679;28;20440;-70
2022/03/06 03:58:50;;;;;;;26.67;16.13;;;;;;;-1.44;80.81;101847.88;5115574;28;20433;-69
2022/03/06 04:01:18;;;;;;;28.07;15.90;;;;;;;-1.55;81.22;101844.16;5116039;28;20491;-70
2022/03/06 04:03:45;;;;;;;22.73;15.80;;;;;;;-1.55;81.37;101855.31;5115771;28;20958;-70
2022/03/06 04:06:11;;;;;;;27.27;16.40;;;;;;;-1.57;81.45;101851.84;5115399;28;20429;-70
2022/03/06 04:08:38;;;;;;;32.03;17.13;;;;;;;-1.56;81.26;101860.41;5115673;28;20430;-70
2022/03/06 04:11:06;;;;;;;36.73;17.07;;;;;;;-1.59;81.33;101862.88;5115281;28;20449;-70
2022/03/06 04:13:32;;;;;;;31.40;17.17;;;;;;;-1.58;81.10;101859.47;5115464;28;20810;-70
2022/03/06 04:15:59;;;;;;;23.63;15.10;;;;;;;-1.61;81.39;101861.97;5115831;28;20440;-70
2022/03/06 04:18:26;;;;;;;25.07;15.30;;;;;;;-1.62;81.59;101861.09;5115468;28;20465;-70
2022/03/06 04:20:53;;;;;;;26.80;17.17;;;;;;;-1.64;81.47;101860.22;5115260;28;20958;-69
2022/03/06 04:23:19;;;;;;;28.37;15.97;;;;;;;-1.63;81.82;101866.22;5115663;28;20425;-69
2022/03/06 04:25:46;;;;;;;28.03;17.13;;;;;;;-1.59;81.34;101858.59;5115427;28;20783;-69
2022/03/06 04:28:12;;;;;;;22.87;15.47;;;;;;;-1.50;80.86;101857.97;5115292;28;20425;-69
2022/03/06 04:30:39;;;;;;;25.70;17.20;;;;;;;-1.60;81.25;101863.72;5114867;28;20429;-69
2022/03/06 04:33:05;;;;;;;34.03;16.77;;;;;;;-1.60;81.37;101862.00;5114771;28;20480;-69
2022/03/06 04:35:32;;;;;;;26.93;15.50;;;;;;;-1.61;81.13;101860.28;5114854;28;20833;-69
2022/03/06 04:37:58;;;;;;;26.67;16.17;;;;;;;-1.57;81.25;101871.47;5115047;28;20429;-69
2022/03/06 04:40:25;;;;;;;25.23;16.10;;;;;;;-1.55;81.00;101869.84;5114986;28;20437;-69
2022/03/06 04:42:51;;;;;;;26.73;16.37;;;;;;;-1.64;81.21;101878.19;5114975;28;20878;-69
2022/03/06 04:45:18;;;;;;;33.20;17.13;;;;;;;-1.67;81.61;101881.50;5115484;28;20970;-69
2022/03/06 04:47:44;;;;;;;30.07;17.53;;;;;;;-1.68;82.26;101884.91;5114764;28;20437;-69
2022/03/06 04:50:11;;;;;;;24.70;15.43;;;;;;;-1.71;81.71;101883.97;5114799;28;20437;-69
2022/03/06 04:52:38;;;;;;;31.60;17.30;;;;;;;-1.76;81.91;101882.97;5114460;28;20518;-69
2022/03/06 04:55:05;;;;;;;24.90;16.57;;;;;;;-1.65;81.82;101889.25;5114692;28;20465;-69
2022/03/06 04:57:31;;;;;;;20.93;15.60;;;;;;;-1.77;81.76;101882.09;5114467;28;20916;-69
2022/03/06 04:59:58;;;;;;;27.27;17.20;;;;;;;-1.80;82.06;101881.13;5114428;28;20425;-69
2022/03/06 05:02:24;;;;;;;29.00;17.77;;;;;;;-1.82;82.20;101882.78;5114314;28;20796;-69
2022/03/06 05:04:51;;;;;;;23.50;15.87;;;;;;;-1.89;82.38;101886.00;5114569;28;20445;-69
2022/03/06 05:07:17;;;;;;;25.80;16.20;;;;;;;-1.94;82.33;101884.16;5114258;28;20437;-69
2022/03/06 05:09:44;;;;;;;22.40;15.17;;;;;;;-1.96;82.37;101888.41;5114277;28;20421;-69
2022/03/06 05:12:10;;;;;;;32.53;18.70;;;;;;;-1.94;81.87;101885.88;5114007;28;20449;-69
2022/03/06 05:14:37;;;;;;;22.70;15.97;;;;;;;-1.97;81.88;101886.66;5114057;28;20461;-69
2022/03/06 05:17:04;;;;;;;28.80;17.43;;;;;;;-2.07;82.00;101876.97;5114522;28;20784;-70
2022/03/06 05:19:30;;;;;;;37.13;16.47;;;;;;;-2.15;82.61;101885.25;5114017;28;20433;-70
2022/03/06 05:21:57;;;;;;;28.30;16.47;;;;;;;-2.17;82.59;101872.38;5113905;28;20962;-69
2022/03/06 05:24:23;;;;;;;29.67;16.57;;;;;;;-2.23;83.25;101875.63;5113997;28;20938;-69
2022/03/06 05:26:50;;;;;;;21.33;15.67;;;;;;;-2.13;83.35;101879.34;5114514;28;20783;-69
2022/03/06 05:29:16;;;;;;;30.97;16.20;;;;;;;-2.03;82.62;101883.06;5114262;28;20410;-69
2022/03/06 05:31:42;;;;;;;25.97;14.97;;;;;;;-2.08;82.81;101897.44;5113819;28;20449;-69
2022/03/06 05:34:09;;;;;;;20.63;15.77;;;;;;;-2.11;83.30;101898.22;5113737;28;20461;-69
2022/03/06 05:36:36;;;;;;;23.10;14.67;;;;;;;-2.00;83.08;101894.28;5114407;28;20856;-69
2022/03/06 05:39:02;;;;;;;33.33;16.63;;;;;;;-2.07;83.12;101889.81;5113835;28;20417;-69
2022/03/06 05:41:29;;;;;;;26.43;15.57;;;;;;;-2.07;82.87;101900.06;5114340;28;20445;-69
2022/03/06 05:43:55;;;;;;;23.27;15.83;;;;;;;-2.04;83.00;101904.41;5114406;28;20406;-69
2022/03/06 05:46:22;;;;;;;27.43;16.13;;;;;;;-2.08;83.08;101908.56;5114021;28;20417;-69
2022/03/06 05:48:49;;;;;;;24.40;14.67;;;;;;;-2.05;82.74;101907.81;5114287;28;20452;-69
2022/03/06 05:51:15;;;;;;;24.87;15.10;;;;;;;-2.10;82.50;101909.34;5114200;28;20847;-69
2022/03/06 05:53:42;;;;;;;25.20;15.53;;;;;;;-2.09;82.54;101919.66;5113793;28;20784;-69
2022/03/06 05:56:08;;;;;;;27.40;15.70;;;;;;;-2.08;82.52;101917.97;5096312;28;20445;-69
2022/03/06 05:58:35;;;;;;;32.73;14.87;;;;;;;-2.12;82.53;101926.41;5115608;28;20446;-69
2022/03/06 06:01:01;;;;;;;24.07;14.37;;;;;;;-2.07;82.28;101927.38;5117964;28;20449;-69
2022/03/06 06:03:28;;;;;;;26.37;15.57;;;;;;;-2.06;82.19;101927.47;5117826;28;20421;-69
2022/03/06 06:05:55;;;;;;;26.63;16.10;;;;;;;-2.15;82.32;101939.13;5117788;28;20837;-69
2022/03/06 06:08:22;;;;;;;21.07;14.03;;;;;;;-2.15;82.29;101941.69;5118011;28;20425;-69
2022/03/06 06:10:49;;;;;;;27.73;15.17;;;;;;;-2.16;82.13;101939.94;5118124;28;20450;-69
2022/03/06 06:13:15;;;;;;;26.07;14.70;;;;;;;-2.20;82.13;101949.25;5117826;28;20874;-69
2022/03/06 06:15:44;;;;;;;24.30;15.07;;;;;;;-2.29;82.31;101954.09;5117845;28;20907;-69
2022/03/06 06:18:11;;;;;;;25.73;15.50;;;;;;;-2.18;82.23;101957.88;5117551;28;20428;-69
2022/03/06 06:20:38;;;;;;;23.77;15.53;;;;;;;-2.23;82.35;101949.16;5117520;28;20441;-69
2022/03/06 06:23:05;;;;;;;24.40;13.80;;;;;;;-2.28;82.57;101954.16;5099398;28;20425;-69
2022/03/06 06:25:31;;;;;;;19.57;12.67;;;;;;;-2.24;82.36;101960.25;5117678;28;20406;-69
2022/03/06 06:27:58;;;;;;;23.20;15.67;;;;;;;-2.22;82.76;101956.00;5117534;28;20436;-69
2022/03/06 06:30:24;;;;;;;26.80;14.43;;;;;;;-2.16;82.77;101961.34;5117465;28;20826;-69
2022/03/06 06:32:51;;;;;;;22.23;14.37;;;;;;;-2.17;82.66;101963.88;5117246;28;20410;-69
2022/03/06 06:35:20;;;;;;;23.90;15.80;;;;;;;-2.09;82.52;101968.41;5117447;28;20548;-69
2022/03/06 06:37:48;;;;;;;21.33;14.30;;;;;;;-2.03;82.36;101963.47;5117204;28;20490;-69
2022/03/06 06:40:15;;;;;;;22.70;13.70;;;;;;;-1.99;82.46;101964.44;5117163;28;20757;-69
2022/03/06 06:42:41;;;;;;;22.97;14.40;;;;;;;-1.99;82.04;101957.59;5117024;28;20445;-69
2022/03/06 06:45:08;;;;;;;21.80;14.33;;;;;;;-2.00;82.10;101963.56;5117008;28;20942;-70
2022/03/06 06:47:34;;;;;;;19.97;14.10;;;;;;;-2.02;82.18;101972.91;5117532;28;20429;-70
2022/03/06 06:50:03;;;;;;;22.03;15.00;;;;;;;-1.93;82.06;101977.44;5117593;28;20411;-70
2022/03/06 06:52:30;;;;;;;29.17;15.30;;;;;;;-1.91;82.06;101982.63;5117030;28;20891;-69
2022/03/06 06:54:57;;;;;;;20.33;14.70;;;;;;;-1.88;81.92;101978.44;5116735;28;20456;-70
2022/03/06 06:57:24;;;;;;;29.43;14.83;;;;;;;-1.85;82.00;101985.38;5116666;28;20422;-70
2022/03/06 06:59:50;;;;;;;22.93;13.77;;;;;;;-1.79;81.76;101982.97;5117319;28;20437;-70
2022/03/06 07:02:17;;;;;;;26.70;15.63;;;;;;;-1.72;81.51;101983.19;5116877;28;20456;-70
2022/03/06 07:04:44;;;;;;;24.63;14.90;;;;;;;-1.63;81.40;101982.63;5116568;28;20426;-70
2022/03/06 07:07:10;;;;;;;24.00;15.73;;;;;;;-1.60;81.83;101990.38;5116860;28;20426;-70
2022/03/06 07:09:37;;;;;;;21.23;14.67;;;;;;;-1.59;82.05;101988.69;5115214;28;20425;-70
2022/03/06 07:12:04;;;;;;;25.33;15.93;;;;;;;-1.49;81.91;101983.00;5116477;28;20453;-70
2022/03/06 07:14:30;;;;;;;20.13;15.53;;;;;;;-1.39;81.72;101992.69;5116659;28;20461;-70
2022/03/06 07:16:57;;;;;;;24.77;16.80;;;;;;;-1.33;82.04;102002.28;5116672;28;20433;-70
2022/03/06 07:19:23;;;;;;;36.97;16.17;;;;;;;-0.97;80.55;101995.56;5116355;28;20432;-70
2022/03/06 07:21:50;;;;;;;24.90;15.93;;;;;;;-1.04;80.50;101995.38;5116094;28;20467;-70
2022/03/06 07:24:17;;;;;;;31.07;15.60;;;;;;;-0.96;80.16;101997.31;5116288;28;20428;-70
2022/03/06 07:26:43;;;;;;;25.40;15.77;;;;;;;-0.87;79.86;102007.81;5116184;28;20432;-70
2022/03/06 07:29:10;;;;;;;24.13;15.27;;;;;;;-0.94;79.59;102017.91;5116144;28;20437;-70
2022/03/06 07:31:36;;;;;;;28.53;15.77;;;;;;;-0.82;79.10;102015.66;5116223;28;20446;-70
2022/03/06 07:34:03;;;;;;;21.77;15.20;;;;;;;-0.81;79.14;102012.25;5116227;28;20483;-70
2022/03/06 07:36:29;;;;;;;24.13;15.70;;;;;;;-0.69;78.51;102024.56;5116815;28;20432;-70
2022/03/06 07:38:56;;;;;;;24.10;15.90;;;;;;;-0.63;78.59;102022.16;5116303;28;20796;-70
2022/03/06 07:41:23;;;;;;;25.43;17.07;;;;;;;-0.62;79.08;102029.03;5116157;28;20461;-70
2022/03/06 07:43:49;;;;;;;23.63;15.03;;;;;;;-0.53;78.52;102031.84;5116196;28;21021;-70
2022/03/06 07:46:16;;;;;;;20.03;14.73;;;;;;;-0.35;78.17;102034.88;5115821;28;20444;-70
2022/03/06 07:48:42;;;;;;;22.33;14.90;;;;;;;-0.36;78.47;102034.81;5116044;28;20410;-70
2022/03/06 07:51:09;;;;;;;22.30;16.03;;;;;;;-0.33;78.80;102033.22;5115781;28;20818;-70
2022/03/06 07:53:36;;;;;;;26.93;15.20;;;;;;;-0.26;78.47;102035.94;5116232;28;20424;-70
2022/03/06 07:56:02;;;;;;;27.70;15.63;;;;;;;-0.11;77.73;102039.75;5115951;28;20415;-70
2022/03/06 07:58:29;;;;;;;23.47;15.27;;;;;;;0.12;77.80;102042.84;5115634;28;20435;-70
2022/03/06 08:00:55;;;;;;;29.33;16.47;;;;;;;0.21;76.83;102037.88;5115538;28;20834;-70
2022/03/06 08:03:22;;;;;;;30.00;16.10;;;;;;;0.22;76.81;102038.78;5115809;28;20478;-70
2022/03/06 08:05:48;;;;;;;31.30;16.53;;;;;;;0.26;76.70;102033.72;5115964;28;20428;-70
2022/03/06 08:08:15;;;;;;;24.77;16.20;;;;;;;0.37;75.94;102035.69;5115494;28;20440;-70
2022/03/06 08:10:41;;;;;;;24.53;15.83;;;;;;;0.37;76.08;102035.69;5115634;28;20458;-70
2022/03/06 08:13:08;;;;;;;30.07;16.17;;;;;;;0.34;76.65;102039.03;5115575;28;20437;-70
2022/03/06 08:15:34;;;;;;;27.20;17.10;;;;;;;0.48;76.20;102037.63;5115528;28;20449;-70
2022/03/06 08:18:01;;;;;;;20.90;16.03;;;;;;;0.56;75.78;102037.78;5115204;28;20440;-70
2022/03/06 08:20:28;;;;;;;23.17;16.93;;;;;;;0.66;75.45;102039.72;5115046;28;20451;-70
2022/03/06 08:22:54;;;;;;;31.63;18.10;;;;;;;0.85;74.81;102038.38;5115096;28;20433;-70
2022/03/06 08:25:21;;;;;;;32.37;18.33;;;;;;;0.90;74.47;102041.06;5115051;28;20525;-70
2022/03/06 08:27:47;;;;;;;28.33;17.23;;;;;;;1.18;74.48;102045.03;5115276;28;20452;-70
2022/03/06 08:30:15;;;;;;;23.13;16.93;;;;;;;1.13;74.52;102046.66;5114987;28;20447;-70
2022/03/06 08:32:41;;;;;;;31.97;18.60;;;;;;;1.24;73.94;102051.19;5115079;28;20884;-70
2022/03/06 08:35:08;;;;;;;20.57;16.00;;;;;;;1.46;73.71;102055.00;5115354;28;20449;-70
2022/03/06 08:37:35;;;;;;;30.03;17.83;;;;;;;1.46;73.21;102055.00;5115108;28;20185;-70
2022/03/06 08:40:03;;;;;;;29.80;17.27;;;;;;;1.57;72.74;102050.03;5096537;28;20432;-70
2022/03/06 08:42:30;;;;;;;23.67;17.07;;;;;;;1.69;71.69;102052.81;5114631;28;20201;-70
2022/03/06 08:44:56;;;;;;;27.10;15.80;;;;;;;1.85;71.72;102052.22;5114849;28;20795;-70
2022/03/06 08:47:23;;;;;;;27.67;17.63;;;;;;;1.91;71.16;102056.63;5114909;28;20647;-70
2022/03/06 08:49:50;;;;;;;26.07;17.20;;;;;;;2.07;70.36;102061.19;5114618;28;20185;-70
2022/03/06 08:52:16;;;;;;;28.90;17.87;;;;;;;2.11;70.09;102062.97;5114791;28;20215;-70
2022/03/06 08:54:43;;;;;;;23.17;17.13;;;;;;;2.29;69.86;102064.97;5114426;28;20228;-70
2022/03/06 08:57:09;;;;;;;26.43;16.97;;;;;;;2.37;69.62;102063.34;5114807;28;20181;-70
2022/03/06 08:59:37;;;;;;;27.70;18.07;;;;;;;2.48;68.89;102066.94;5114424;28;20694;-70
2022/03/06 09:02:03;;;;;;;20.73;16.07;;;;;;;2.59;69.17;102061.06;5114412;28;20209;-70
2022/03/06 09:04:33;;;;;;;24.57;16.07;;;;;;;2.74;67.67;102067.28;5114644;28;20210;-68
2022/03/06 09:07:00;;;;;;;22.30;16.73;;;;;;;2.74;67.69;102053.50;5114556;28;20521;-68
2022/03/06 09:09:26;;;;;;;24.50;16.77;;;;;;;2.85;67.04;102058.78;5115011;28;20178;-68
2022/03/06 09:11:53;;;;;;;27.53;17.00;;;;;;;2.93;66.78;102055.47;5096392;28;20560;-68
2022/03/06 09:14:19;;;;;;;24.07;17.37;;;;;;;3.12;66.50;102058.22;5114311;28;20208;-70
2022/03/06 09:16:46;;;;;;;22.77;17.57;;;;;;;3.26;65.19;102057.53;5114396;28;20185;-70
2022/03/06 09:19:13;;;;;;;24.47;16.43;;;;;;;3.49;64.58;102055.16;5113886;28;20186;-69
2022/03/06 09:21:39;;;;;;;26.20;18.00;;;;;;;3.64;63.13;102051.84;5113841;28;20211;-68
2022/03/06 09:24:08;;;;;;;29.40;17.43;;;;;;;3.69;63.44;102054.47;5114435;28;20187;-68
2022/03/06 09:26:35;;;;;;;27.23;18.00;;;;;;;3.80;63.36;102061.50;5114081;28;20277;-68
2022/03/06 09:29:04;;;;;;;26.60;18.33;;;;;;;3.93;63.26;102056.38;5114266;28;20204;-68
2022/03/06 09:31:30;;;;;;;23.60;17.60;;;;;;;4.10;62.00;102060.84;5114080;28;20215;-68
2022/03/06 09:33:57;;;;;;;21.90;16.70;;;;;;;4.21;61.95;102063.50;5112659;28;20196;-68
2022/03/06 09:36:44;;;;;;;23.53;17.83;;;;;;;4.18;61.50;102057.44;5113700;28;20180;-68
2022/03/06 09:39:12;;;;;;;20.50;16.60;;;;;;;4.27;61.34;102057.50;5113540;28;20192;-68
2022/03/06 09:41:39;;;;;;;24.93;16.57;;;;;;;4.44;60.53;102060.22;5094345;28;20207;-68
2022/03/06 09:44:11;;;;;;;24.03;16.00;;;;;;;4.51;59.86;102062.84;5112648;28;20216;-68
2022/03/06 09:46:39;;;;;;;28.47;16.43;;;;;;;4.51;59.28;102062.84;5094742;28;20654;-68
2022/03/06 09:49:06;;;;;;;21.57;16.33;;;;;;;4.62;59.12;102066.34;5113629;28;20527;-68
2022/03/06 09:51:43;;;;;;;19.60;16.13;;;;;;;4.77;58.45;102057.75;5114156;28;20205;-68
2022/03/06 09:54:11;;;;;;;18.07;15.93;;;;;;;4.71;58.12;102065.50;5113631;28;20183;-68
2022/03/06 09:56:39;;;;;;;21.27;15.53;;;;;;;4.98;59.22;102059.56;5113953;28;20189;-68
2022/03/06 09:59:06;;;;;;;20.40;16.17;;;;;;;5.15;56.58;102063.09;5113633;28;20268;-68
2022/03/06 10:01:32;;;;;;;17.63;15.27;;;;;;;5.14;56.20;102063.06;5114049;28;20209;-68
2022/03/06 10:04:24;;;;;;;22.13;16.23;;;;;;;5.18;56.07;102063.09;5114377;28;20238;-68
2022/03/06 10:07:12;;;;;;;23.30;16.77;;;;;;;5.34;55.07;102056.19;5113829;28;20200;-69
2022/03/06 10:09:49;;;;;;;25.43;16.13;;;;;;;5.20;53.73;102048.38;5113831;28;20169;-69
2022/03/06 10:12:21;;;;;;;19.17;16.07;;;;;;;5.41;55.25;102063.13;5113373;28;20206;-69
2022/03/06 10:14:49;;;;;;;20.40;14.67;;;;;;;5.49;54.21;102057.94;5113694;28;20281;-69
2022/03/06 10:17:21;;;;;;;16.50;14.53;;;;;;;5.73;53.54;102058.00;5113485;28;20189;-69
2022/03/06 10:20:03;;;;;;;17.83;15.87;;;;;;;5.80;52.97;102064.94;5113568;28;20190;-69
2022/03/06 10:22:32;;;;;;;21.77;15.93;;;;;;;6.08;53.12;102059.75;5113668;28;20208;-70
2022/03/06 10:25:10;;;;;;;19.30;16.10;;;;;;;6.22;51.86;102058.00;5113370;28;20208;-71
2022/03/06 10:27:53;;;;;;;22.03;15.13;;;;;;;6.21;51.00;102060.56;5113401;28;20296;-71
2022/03/06 10:30:37;;;;;;;17.80;14.43;;;;;;;6.08;51.85;102064.94;5113746;28;20173;-71
2022/03/06 10:33:10;;;;;;;24.73;15.10;;;;;;;6.05;51.37;102067.53;5113884;28;20219;-71
2022/03/06 10:35:42;;;;;;;18.60;16.03;;;;;;;5.86;52.22;102063.16;5113442;28;20630;-71
2022/03/06 10:38:27;;;;;;;19.80;14.37;;;;;;;6.08;51.57;102062.34;5113556;28;20192;-71
2022/03/06 10:40:59;;;;;;;19.13;15.10;;;;;;;6.17;49.85;102064.94;5113222;28;20296;-71
2022/03/06 10:43:29;;;;;;;18.43;15.23;;;;;;;6.32;51.01;102058.84;5113576;28;20189;-71
2022/03/06 10:46:05;;;;;;;18.00;15.13;;;;;;;6.67;50.34;102055.28;5117676;28;20529;-69
2022/03/06 10:48:31;;;;;;;19.50;15.87;;;;;;;6.90;48.97;102049.09;5117201;28;20197;-69
2022/03/06 10:51:04;;;;;;;18.77;15.63;;;;;;;6.95;47.74;102050.81;5116911;28;20203;-69
2022/03/06 10:53:31;;;;;;;17.90;15.83;;;;;;;6.85;48.50;102049.97;5117304;28;20614;-69
2022/03/06 10:56:13;;;;;;;21.80;16.57;;;;;;;6.88;49.03;102048.22;5117170;28;20217;-69
2022/03/06 10:58:42;;;;;;;18.10;16.03;;;;;;;6.86;48.02;102049.13;5116821;28;20194;-69
2022/03/06 11:01:27;;;;;;;18.93;15.30;;;;;;;6.93;48.60;102047.34;5116843;28;20207;-69
2022/03/06 11:03:57;;;;;;;20.57;16.40;;;;;;;6.98;48.47;102040.38;5116692;28;20194;-71
2022/03/06 11:06:26;;;;;;;17.77;15.90;;;;;;;6.89;47.52;102047.34;5116918;28;20187;-71
2022/03/06 11:08:53;;;;;;;17.90;15.27;;;;;;;7.04;48.28;102045.56;5117046;28;20181;-71
2022/03/06 11:11:21;;;;;;;18.27;16.00;;;;;;;6.95;46.44;102050.81;5117084;28;20205;-70
2022/03/06 11:13:48;;;;;;;17.10;15.00;;;;;;;6.74;48.13;102051.78;5116401;28;20194;-71